sensor_id;sensor_type;location;lat;lon;timestamp;pressure;altitude;pressure_sealevel;temperature;humidity
8140;BME280;4111;50.972;7.072;2022-09-09T00:00:20;100394.22;;;18.43;88.25
8140;BME280;4111;50.972;7.072;2022-09-09T00:03:08;100399.00;;;18.52;87.40
8140;BME280;4111;50.972;7.072;2022-09-09T00:05:56;100389.75;;;18.48;87.07
8140;BME280;4111;50.972;7.072;2022-09-09T00:08:36;100387.63;;;18.45;86.95
8140;BME280;4111;50.972;7.072;2022-09-09T00:11:05;100385.38;;;18.47;87.15
8140;BME280;4111;50.972;7.072;2022-09-09T00:13:52;100384.16;;;18.53;86.57
8140;BME280;4111;50.972;7.072;2022-09-09T00:16:24;100368.88;;;18.47;86.96
8140;BME280;4111;50.972;7.072;2022-09-09T00:19:05;100371.63;;;18.47;86.97
8140;BME280;4111;50.972;7.072;2022-09-09T00:21:38;100368.06;;;18.46;86.54
8140;BME280;4111;50.972;7.072;2022-09-09T00:26:57;100368.59;;;18.34;86.88
8140;BME280;4111;50.972;7.072;2022-09-09T00:29:35;100373.06;;;18.30;87.16
8140;BME280;4111;50.972;7.072;2022-09-09T00:32:16;100369.63;;;18.11;87.37
8140;BME280;4111;50.972;7.072;2022-09-09T00:35:04;100369.63;;;18.11;87.89
8140;BME280;4111;50.972;7.072;2022-09-09T00:37:38;100369.13;;;18.09;87.67
8140;BME280;4111;50.972;7.072;2022-09-09T00:40:21;100375.84;;;18.02;88.06
8140;BME280;4111;50.972;7.072;2022-09-09T00:42:54;100380.72;;;18.06;88.11
8140;BME280;4111;50.972;7.072;2022-09-09T00:48:02;100379.50;;;17.98;88.00
8140;BME280;4111;50.972;7.072;2022-09-09T00:53:10;100381.44;;;17.97;88.34
8140;BME280;4111;50.972;7.072;2022-09-09T00:55:48;100378.28;;;17.90;88.74
8140;BME280;4111;50.972;7.072;2022-09-09T00:58:18;100375.03;;;17.88;88.71
8140;BME280;4111;50.972;7.072;2022-09-09T01:00:49;100376.03;;;17.92;88.54
8140;BME280;4111;50.972;7.072;2022-09-09T01:06:32;100374.63;;;17.95;88.19
8140;BME280;4111;50.972;7.072;2022-09-09T01:09:30;100377.19;;;17.91;88.30
8140;BME280;4111;50.972;7.072;2022-09-09T01:17:13;100376.69;;;17.89;88.35
8140;BME280;4111;50.972;7.072;2022-09-09T01:27:44;100371.56;;;17.96;88.46
8140;BME280;4111;50.972;7.072;2022-09-09T01:30:16;100370.13;;;17.99;88.06
8140;BME280;4111;50.972;7.072;2022-09-09T01:32:46;100368.94;;;17.91;87.98
8140;BME280;4111;50.972;7.072;2022-09-09T01:37:50;100372.66;;;17.81;88.41
8140;BME280;4111;50.972;7.072;2022-09-09T01:40:16;100377.53;;;17.71;88.71
8140;BME280;4111;50.972;7.072;2022-09-09T01:42:42;100373.56;;;17.77;88.67
8140;BME280;4111;50.972;7.072;2022-09-09T01:45:09;100366.34;;;17.81;88.70
8140;BME280;4111;50.972;7.072;2022-09-09T01:47:35;100379.06;;;17.77;88.50
8140;BME280;4111;50.972;7.072;2022-09-09T01:50:02;100385.38;;;17.77;88.71
8140;BME280;4111;50.972;7.072;2022-09-09T01:52:30;100388.50;;;17.71;88.71
8140;BME280;4111;50.972;7.072;2022-09-09T01:55:00;100379.69;;;17.74;88.92
8140;BME280;4111;50.972;7.072;2022-09-09T01:57:50;100382.72;;;17.72;89.02
8140;BME280;4111;50.972;7.072;2022-09-09T02:00:20;100384.97;;;17.70;89.10
8140;BME280;4111;50.972;7.072;2022-09-09T02:05:17;100381.69;;;17.68;89.11
8140;BME280;4111;50.972;7.072;2022-09-09T02:07:50;100383.13;;;17.66;89.46
8140;BME280;4111;50.972;7.072;2022-09-09T02:10:24;100384.22;;;17.64;89.67
8140;BME280;4111;50.972;7.072;2022-09-09T02:13:15;100380.38;;;17.66;89.64
8140;BME280;4111;50.972;7.072;2022-09-09T02:15:52;100379.75;;;17.69;89.82
8140;BME280;4111;50.972;7.072;2022-09-09T02:18:24;100375.28;;;17.73;89.86
8140;BME280;4111;50.972;7.072;2022-09-09T02:20:53;100380.47;;;17.74;89.72
8140;BME280;4111;50.972;7.072;2022-09-09T02:23:20;100376.81;;;17.79;89.50
8140;BME280;4111;50.972;7.072;2022-09-09T02:25:48;100376.81;;;17.79;89.48
8140;BME280;4111;50.972;7.072;2022-09-09T02:28:18;100382.44;;;17.74;89.50
8140;BME280;4111;50.972;7.072;2022-09-09T02:30:49;100370.31;;;17.75;89.33
8140;BME280;4111;50.972;7.072;2022-09-09T02:33:25;100370.94;;;17.72;89.32
8140;BME280;4111;50.972;7.072;2022-09-09T02:35:53;100372.53;;;17.73;89.24
8140;BME280;4111;50.972;7.072;2022-09-09T02:38:25;100376.81;;;17.79;89.19
8140;BME280;4111;50.972;7.072;2022-09-09T02:40:54;100381.22;;;17.80;88.98
8140;BME280;4111;50.972;7.072;2022-09-09T02:43:21;100378.69;;;17.83;88.69
8140;BME280;4111;50.972;7.072;2022-09-09T02:45:56;100375.72;;;17.80;88.97
8140;BME280;4111;50.972;7.072;2022-09-09T02:48:47;100383.31;;;17.83;89.26
8140;BME280;4111;50.972;7.072;2022-09-09T02:51:30;100371.94;;;17.76;89.29
8140;BME280;4111;50.972;7.072;2022-09-09T02:54:26;100377.94;;;17.78;89.22
8140;BME280;4111;50.972;7.072;2022-09-09T02:56:54;100379.06;;;17.77;89.28
8140;BME280;4111;50.972;7.072;2022-09-09T02:59:22;100371.31;;;17.79;89.06
8140;BME280;4111;50.972;7.072;2022-09-09T03:01:51;100368.78;;;17.82;88.97
8140;BME280;4111;50.972;7.072;2022-09-09T03:04:17;100368.56;;;17.79;89.45
8140;BME280;4111;50.972;7.072;2022-09-09T03:06:43;100368.53;;;17.84;88.79
8140;BME280;4111;50.972;7.072;2022-09-09T03:09:10;100363.75;;;17.90;88.91
8140;BME280;4111;50.972;7.072;2022-09-09T03:11:37;100359.69;;;17.87;88.85
8140;BME280;4111;50.972;7.072;2022-09-09T03:14:04;100361.22;;;17.93;88.67
8140;BME280;4111;50.972;7.072;2022-09-09T03:16:31;100362.63;;;17.91;88.58
8140;BME280;4111;50.972;7.072;2022-09-09T03:18:58;100354.69;;;17.89;88.79
8140;BME280;4111;50.972;7.072;2022-09-09T03:21:25;100358.25;;;17.90;88.66
8140;BME280;4111;50.972;7.072;2022-09-09T03:23:51;100367.50;;;17.94;88.49
8140;BME280;4111;50.972;7.072;2022-09-09T03:26:18;100359.28;;;17.94;88.60
8140;BME280;4111;50.972;7.072;2022-09-09T03:28:45;100354.59;;;17.94;88.47
8140;BME280;4111;50.972;7.072;2022-09-09T03:31:11;100354.00;;;17.97;88.61
8140;BME280;4111;50.972;7.072;2022-09-09T03:33:38;100355.50;;;18.03;88.23
8140;BME280;4111;50.972;7.072;2022-09-09T03:36:05;100354.28;;;17.96;87.96
8140;BME280;4111;50.972;7.072;2022-09-09T03:38:31;100357.97;;;17.91;88.51
8140;BME280;4111;50.972;7.072;2022-09-09T03:40:59;100359.78;;;17.96;88.30
8140;BME280;4111;50.972;7.072;2022-09-09T03:43:26;100367.09;;;17.87;88.40
8140;BME280;4111;50.972;7.072;2022-09-09T03:45:53;100366.00;;;17.88;88.64
8140;BME280;4111;50.972;7.072;2022-09-09T03:48:23;100370.13;;;17.85;88.56
8140;BME280;4111;50.972;7.072;2022-09-09T03:50:52;100365.03;;;17.78;88.79
8140;BME280;4111;50.972;7.072;2022-09-09T03:53:21;100362.69;;;17.72;89.02
8140;BME280;4111;50.972;7.072;2022-09-09T03:55:50;100365.44;;;17.72;89.14
8140;BME280;4111;50.972;7.072;2022-09-09T03:58:18;100371.53;;;17.69;88.96
8140;BME280;4111;50.972;7.072;2022-09-09T04:00:59;100371.94;;;17.76;89.03
8140;BME280;4111;50.972;7.072;2022-09-09T04:03:27;100371.31;;;17.79;88.75
8140;BME280;4111;50.972;7.072;2022-09-09T04:05:55;100373.06;;;17.75;88.27
8140;BME280;4111;50.972;7.072;2022-09-09T04:08:22;100366.84;;;17.83;88.34
8140;BME280;4111;50.972;7.072;2022-09-09T04:10:49;100366.47;;;17.76;88.12
8140;BME280;4111;50.972;7.072;2022-09-09T04:13:17;100356.50;;;17.80;88.07
8140;BME280;4111;50.972;7.072;2022-09-09T04:15:51;100354.03;;;17.78;88.17
8140;BME280;4111;50.972;7.072;2022-09-09T04:18:17;100361.56;;;17.73;88.39
8140;BME280;4111;50.972;7.072;2022-09-09T04:20:49;100360.75;;;17.72;88.45
8140;BME280;4111;50.972;7.072;2022-09-09T04:23:17;100354.66;;;17.75;88.43
8140;BME280;4111;50.972;7.072;2022-09-09T04:25:49;100345.28;;;17.76;88.48
8140;BME280;4111;50.972;7.072;2022-09-09T04:28:18;100347.13;;;17.81;87.98
8140;BME280;4111;50.972;7.072;2022-09-09T04:30:45;100354.78;;;17.84;87.74
8140;BME280;4111;50.972;7.072;2022-09-09T04:33:13;100350.50;;;17.78;87.98
8140;BME280;4111;50.972;7.072;2022-09-09T04:35:48;100345.50;;;17.80;88.08
8140;BME280;4111;50.972;7.072;2022-09-09T04:38:15;100352.56;;;17.86;87.59
8140;BME280;4111;50.972;7.072;2022-09-09T04:40:43;100363.03;;;17.84;87.66
8140;BME280;4111;50.972;7.072;2022-09-09T04:43:10;100372.97;;;17.80;87.65
8140;BME280;4111;50.972;7.072;2022-09-09T04:45:40;100373.56;;;17.77;87.92
8140;BME280;4111;50.972;7.072;2022-09-09T04:48:07;100369.19;;;17.76;87.95
8140;BME280;4111;50.972;7.072;2022-09-09T04:50:33;100376.63;;;17.75;88.01
8140;BME280;4111;50.972;7.072;2022-09-09T04:53:01;100380.06;;;17.81;87.94
8140;BME280;4111;50.972;7.072;2022-09-09T04:55:28;100374.56;;;17.81;88.11
8140;BME280;4111;50.972;7.072;2022-09-09T04:57:54;100377.84;;;17.83;87.95
8140;BME280;4111;50.972;7.072;2022-09-09T05:00:21;100369.84;;;17.87;87.79
8140;BME280;4111;50.972;7.072;2022-09-09T05:02:47;100373.94;;;17.89;87.67
8140;BME280;4111;50.972;7.072;2022-09-09T05:05:14;100378.47;;;17.80;87.94
8140;BME280;4111;50.972;7.072;2022-09-09T05:07:40;100383.88;;;17.85;88.16
8140;BME280;4111;50.972;7.072;2022-09-09T05:10:08;100379.88;;;17.77;87.96
8140;BME280;4111;50.972;7.072;2022-09-09T05:12:34;100375.19;;;17.78;88.45
8140;BME280;4111;50.972;7.072;2022-09-09T05:15:00;100372.75;;;17.76;88.27
8140;BME280;4111;50.972;7.072;2022-09-09T05:17:27;100375.00;;;17.74;88.59
8140;BME280;4111;50.972;7.072;2022-09-09T05:19:54;100376.22;;;17.68;88.93
8140;BME280;4111;50.972;7.072;2022-09-09T05:22:21;100371.13;;;17.61;89.38
8140;BME280;4111;50.972;7.072;2022-09-09T05:24:49;100374.47;;;17.58;90.33
8140;BME280;4111;50.972;7.072;2022-09-09T05:27:19;100359.59;;;17.59;90.93
8140;BME280;4111;50.972;7.072;2022-09-09T05:29:46;100366.72;;;17.47;91.84
8140;BME280;4111;50.972;7.072;2022-09-09T05:32:12;100373.63;;;17.44;92.68
8140;BME280;4111;50.972;7.072;2022-09-09T05:34:41;100373.22;;;17.51;93.65
8140;BME280;4111;50.972;7.072;2022-09-09T05:37:07;100373.81;;;17.34;95.67
8140;BME280;4111;50.972;7.072;2022-09-09T05:39:34;100373.66;;;17.25;97.00
8140;BME280;4111;50.972;7.072;2022-09-09T05:42:03;100375.59;;;17.24;97.61
8140;BME280;4111;50.972;7.072;2022-09-09T05:44:31;100373.44;;;17.21;98.03
8140;BME280;4111;50.972;7.072;2022-09-09T05:46:57;100377.69;;;17.14;98.70
8140;BME280;4111;50.972;7.072;2022-09-09T05:49:24;100377.06;;;17.03;99.47
8140;BME280;4111;50.972;7.072;2022-09-09T05:51:51;100379.88;;;16.98;99.70
8140;BME280;4111;50.972;7.072;2022-09-09T05:54:18;100370.53;;;16.99;100.00
8140;BME280;4111;50.972;7.072;2022-09-09T05:56:44;100375.41;;;17.02;100.00
8140;BME280;4111;50.972;7.072;2022-09-09T05:59:16;100379.72;;;17.08;99.95
8140;BME280;4111;50.972;7.072;2022-09-09T06:01:43;100372.09;;;17.05;100.00
8140;BME280;4111;50.972;7.072;2022-09-09T06:04:10;100379.72;;;17.08;99.71
8140;BME280;4111;50.972;7.072;2022-09-09T06:06:38;100378.00;;;17.12;99.50
8140;BME280;4111;50.972;7.072;2022-09-09T06:09:07;100377.50;;;17.10;99.62
8140;BME280;4111;50.972;7.072;2022-09-09T06:11:37;100382.97;;;17.10;99.47
8140;BME280;4111;50.972;7.072;2022-09-09T06:14:04;100380.13;;;17.15;99.85
8140;BME280;4111;50.972;7.072;2022-09-09T06:16:34;100384.44;;;17.21;99.78
8140;BME280;4111;50.972;7.072;2022-09-09T06:19:01;100389.31;;;17.24;99.67
8140;BME280;4111;50.972;7.072;2022-09-09T06:21:32;100378.13;;;17.21;99.45
8140;BME280;4111;50.972;7.072;2022-09-09T06:23:59;100383.63;;;17.21;99.13
8140;BME280;4111;50.972;7.072;2022-09-09T06:26:34;100383.03;;;17.24;99.07
8140;BME280;4111;50.972;7.072;2022-09-09T06:29:03;100389.84;;;17.27;99.22
8140;BME280;4111;50.972;7.072;2022-09-09T06:31:32;100390.34;;;17.29;99.12
8140;BME280;4111;50.972;7.072;2022-09-09T06:34:01;100383.66;;;17.35;99.24
8140;BME280;4111;50.972;7.072;2022-09-09T06:36:33;100385.50;;;17.39;98.72
8140;BME280;4111;50.972;7.072;2022-09-09T06:39:00;100383.88;;;17.38;98.28
8140;BME280;4111;50.972;7.072;2022-09-09T06:41:28;100384.78;;;17.34;98.46
8140;BME280;4111;50.972;7.072;2022-09-09T06:43:56;100385.31;;;17.36;98.51
8140;BME280;4111;50.972;7.072;2022-09-09T06:46:24;100389.59;;;17.42;98.58
8140;BME280;4111;50.972;7.072;2022-09-09T06:48:55;100387.16;;;17.54;98.15
8140;BME280;4111;50.972;7.072;2022-09-09T06:51:23;100385.75;;;17.71;97.69
8140;BME280;4111;50.972;7.072;2022-09-09T06:53:51;100389.91;;;17.87;97.27
8140;BME280;4111;50.972;7.072;2022-09-09T06:56:31;100392.03;;;17.90;96.43
8140;BME280;4111;50.972;7.072;2022-09-09T06:58:59;100387.66;;;17.89;95.05
8140;BME280;4111;50.972;7.072;2022-09-09T07:01:32;100383.78;;;18.04;94.78
8140;BME280;4111;50.972;7.072;2022-09-09T07:03:59;100381.53;;;18.06;94.16
8140;BME280;4111;50.972;7.072;2022-09-09T07:08:58;100375.31;;;18.28;92.85
8140;BME280;4111;50.972;7.072;2022-09-09T07:11:28;100375.09;;;18.52;92.09
8140;BME280;4111;50.972;7.072;2022-09-09T07:13:56;100380.44;;;18.71;91.60
8140;BME280;4111;50.972;7.072;2022-09-09T07:16:23;100376.72;;;18.90;90.17
8140;BME280;4111;50.972;7.072;2022-09-09T07:18:54;100381.66;;;19.01;89.02
8140;BME280;4111;50.972;7.072;2022-09-09T07:21:25;100382.75;;;19.14;88.60
8140;BME280;4111;50.972;7.072;2022-09-09T07:23:55;100380.09;;;19.09;87.87
8140;BME280;4111;50.972;7.072;2022-09-09T07:26:24;100386.66;;;18.99;87.16
8140;BME280;4111;50.972;7.072;2022-09-09T07:28:51;100388.63;;;18.99;86.84
8140;BME280;4111;50.972;7.072;2022-09-09T07:31:21;100396.25;;;19.25;86.34
8140;BME280;4111;50.972;7.072;2022-09-09T07:33:48;100394.31;;;19.25;85.55
8140;BME280;4111;50.972;7.072;2022-09-09T07:36:26;100401.75;;;19.25;85.20
8140;BME280;4111;50.972;7.072;2022-09-09T07:39:00;100394.38;;;19.11;83.78
8140;BME280;4111;50.972;7.072;2022-09-09T07:41:37;100407.94;;;19.30;83.43
8140;BME280;4111;50.972;7.072;2022-09-09T07:44:09;100399.94;;;19.42;82.85
8140;BME280;4111;50.972;7.072;2022-09-09T07:46:37;100404.72;;;19.59;82.07
8140;BME280;4111;50.972;7.072;2022-09-09T07:49:06;100412.19;;;19.59;80.61
8140;BME280;4111;50.972;7.072;2022-09-09T07:51:36;100404.09;;;19.62;80.03
8140;BME280;4111;50.972;7.072;2022-09-09T07:54:05;100407.78;;;19.58;79.36
8140;BME280;4111;50.972;7.072;2022-09-09T07:56:32;100418.00;;;19.57;79.73
8140;BME280;4111;50.972;7.072;2022-09-09T07:58:59;100421.84;;;19.48;78.82
8140;BME280;4111;50.972;7.072;2022-09-09T08:01:38;100417.44;;;19.47;79.56
8140;BME280;4111;50.972;7.072;2022-09-09T08:04:11;100425.19;;;19.45;79.15
8140;BME280;4111;50.972;7.072;2022-09-09T08:06:43;100425.50;;;19.43;78.92
8140;BME280;4111;50.972;7.072;2022-09-09T08:09:10;100423.41;;;19.40;78.39
8140;BME280;4111;50.972;7.072;2022-09-09T08:11:38;100429.91;;;19.44;78.94
8140;BME280;4111;50.972;7.072;2022-09-09T08:14:08;100423.13;;;19.50;78.84
8140;BME280;4111;50.972;7.072;2022-09-09T08:16:38;100423.78;;;19.47;77.74
8140;BME280;4111;50.972;7.072;2022-09-09T08:19:05;100418.44;;;19.51;78.22
8140;BME280;4111;50.972;7.072;2022-09-09T08:21:35;100417.59;;;19.41;76.62
8140;BME280;4111;50.972;7.072;2022-09-09T08:24:03;100421.16;;;19.42;76.75
8140;BME280;4111;50.972;7.072;2022-09-09T08:26:35;100420.66;;;19.40;76.18
8140;BME280;4111;50.972;7.072;2022-09-09T08:29:04;100423.84;;;19.33;75.20
8140;BME280;4111;50.972;7.072;2022-09-09T08:31:36;100424.66;;;19.34;75.00
8140;BME280;4111;50.972;7.072;2022-09-09T08:34:04;100418.50;;;19.37;74.80
8140;BME280;4111;50.972;7.072;2022-09-09T08:36:34;100416.91;;;19.36;74.02
8140;BME280;4111;50.972;7.072;2022-09-09T08:39:01;100421.59;;;19.35;73.62
8140;BME280;4111;50.972;7.072;2022-09-09T08:52:23;100426.19;;;19.49;71.01
8140;BME280;4111;50.972;7.072;2022-09-09T08:55:02;100428.34;;;19.52;71.28
8140;BME280;4111;50.972;7.072;2022-09-09T08:57:30;100428.88;;;19.62;70.92
8140;BME280;4111;50.972;7.072;2022-09-09T08:59:58;100436.03;;;19.64;70.51
8140;BME280;4111;50.972;7.072;2022-09-09T09:02:38;100433.94;;;19.69;70.30
8140;BME280;4111;50.972;7.072;2022-09-09T09:05:23;100437.22;;;19.71;70.47
8140;BME280;4111;50.972;7.072;2022-09-09T09:13:23;100435.66;;;19.79;68.92
8140;BME280;4111;50.972;7.072;2022-09-09T09:15:56;100436.00;;;19.86;68.07
8140;BME280;4111;50.972;7.072;2022-09-09T09:18:24;100431.22;;;20.00;67.88
8140;BME280;4111;50.972;7.072;2022-09-09T09:23:46;100436.53;;;20.28;66.69
8140;BME280;4111;50.972;7.072;2022-09-09T09:26:17;100427.63;;;20.40;65.34
8140;BME280;4111;50.972;7.072;2022-09-09T09:28:45;100423.91;;;20.45;65.46
8140;BME280;4111;50.972;7.072;2022-09-09T09:31:12;100437.03;;;20.39;64.99
8140;BME280;4111;50.972;7.072;2022-09-09T09:36:08;100440.56;;;20.31;65.32
8140;BME280;4111;50.972;7.072;2022-09-09T09:38:35;100440.88;;;20.20;65.28
8140;BME280;4111;50.972;7.072;2022-09-09T09:41:49;100434.38;;;20.16;65.68
8140;BME280;4111;50.972;7.072;2022-09-09T09:44:32;100439.66;;;20.04;65.51
8140;BME280;4111;50.972;7.072;2022-09-09T09:47:14;100443.22;;;20.05;65.90
8140;BME280;4111;50.972;7.072;2022-09-09T09:50:00;100438.72;;;20.09;66.10
8140;BME280;4111;50.972;7.072;2022-09-09T09:52:31;100432.41;;;20.17;66.14
8140;BME280;4111;50.972;7.072;2022-09-09T09:54:58;100447.00;;;20.17;65.99
8140;BME280;4111;50.972;7.072;2022-09-09T09:57:33;100440.50;;;20.13;65.67
8140;BME280;4111;50.972;7.072;2022-09-09T10:00:21;100450.72;;;20.13;66.50
8140;BME280;4111;50.972;7.072;2022-09-09T10:02:48;100446.00;;;20.13;66.03
8140;BME280;4111;50.972;7.072;2022-09-09T10:05:22;100437.38;;;20.06;65.93
8140;BME280;4111;50.972;7.072;2022-09-09T10:08:10;100441.97;;;20.11;66.02
8140;BME280;4111;50.972;7.072;2022-09-09T10:10:49;100439.03;;;20.16;65.91
8140;BME280;4111;50.972;7.072;2022-09-09T10:13:34;100432.00;;;20.32;65.95
8140;BME280;4111;50.972;7.072;2022-09-09T10:16:17;100438.97;;;20.38;65.20
8140;BME280;4111;50.972;7.072;2022-09-09T10:18:55;100436.22;;;20.38;65.19
8140;BME280;4111;50.972;7.072;2022-09-09T10:34:53;100425.19;;;20.38;64.00
8140;BME280;4111;50.972;7.072;2022-09-09T10:37:50;100420.47;;;20.39;63.83
8140;BME280;4111;50.972;7.072;2022-09-09T10:40:34;100410.91;;;20.36;63.67
8140;BME280;4111;50.972;7.072;2022-09-09T10:43:16;100428.41;;;20.32;63.41
8140;BME280;4111;50.972;7.072;2022-09-09T10:46:07;100429.22;;;20.32;63.32
8140;BME280;4111;50.972;7.072;2022-09-09T10:48:47;100415.63;;;20.45;63.13
8140;BME280;4111;50.972;7.072;2022-09-09T10:51:39;100420.16;;;20.49;62.75
8140;BME280;4111;50.972;7.072;2022-09-09T10:54:25;100429.91;;;20.55;62.79
8140;BME280;4111;50.972;7.072;2022-09-09T10:57:03;100411.94;;;20.58;62.26
8140;BME280;4111;50.972;7.072;2022-09-09T10:59:37;100415.03;;;20.65;62.53
8140;BME280;4111;50.972;7.072;2022-09-09T11:02:32;100417.47;;;20.67;61.94
8140;BME280;4111;50.972;7.072;2022-09-09T11:05:08;100411.47;;;20.65;62.06
8140;BME280;4111;50.972;7.072;2022-09-09T11:07:59;100410.19;;;20.71;61.93
8140;BME280;4111;50.972;7.072;2022-09-09T11:10:38;100412.00;;;20.75;61.79
8140;BME280;4111;50.972;7.072;2022-09-09T11:13:14;100408.41;;;20.84;61.80
8140;BME280;4111;50.972;7.072;2022-09-09T11:15:45;100413.75;;;20.89;61.99
8140;BME280;4111;50.972;7.072;2022-09-09T11:18:19;100410.66;;;20.99;61.59
8140;BME280;4111;50.972;7.072;2022-09-09T11:20:49;100404.66;;;21.14;61.06
8140;BME280;4111;50.972;7.072;2022-09-09T11:23:24;100403.84;;;21.23;60.14
8140;BME280;4111;50.972;7.072;2022-09-09T11:25:57;100403.19;;;21.26;60.52
8140;BME280;4111;50.972;7.072;2022-09-09T11:34:26;100412.13;;;21.14;60.29
8140;BME280;4111;50.972;7.072;2022-09-09T11:37:17;100399.47;;;21.13;59.89
8140;BME280;4111;50.972;7.072;2022-09-09T11:42:24;100386.16;;;21.15;59.54
8140;BME280;4111;50.972;7.072;2022-09-09T11:44:51;100399.16;;;21.06;59.70
8140;BME280;4111;50.972;7.072;2022-09-09T11:47:28;100399.97;;;21.06;59.70
8140;BME280;4111;50.972;7.072;2022-09-09T11:52:46;100404.97;;;21.13;59.64
8140;BME280;4111;50.972;7.072;2022-09-09T11:55:33;100404.19;;;21.12;59.32
8140;BME280;4111;50.972;7.072;2022-09-09T12:00:42;100395.91;;;21.12;59.34
8140;BME280;4111;50.972;7.072;2022-09-09T12:03:48;100390.03;;;21.23;59.54
8140;BME280;4111;50.972;7.072;2022-09-09T12:06:27;100397.34;;;21.27;59.31
8140;BME280;4111;50.972;7.072;2022-09-09T12:11:38;100392.16;;;21.26;58.75
8140;BME280;4111;50.972;7.072;2022-09-09T12:14:22;100389.72;;;21.24;58.84
8140;BME280;4111;50.972;7.072;2022-09-09T12:16:49;100394.09;;;21.25;59.32
8140;BME280;4111;50.972;7.072;2022-09-09T12:19:21;100390.50;;;21.25;58.96
8140;BME280;4111;50.972;7.072;2022-09-09T12:27:43;100393.47;;;21.19;58.72
8140;BME280;4111;50.972;7.072;2022-09-09T12:30:15;100389.38;;;21.26;59.04
8140;BME280;4111;50.972;7.072;2022-09-09T12:32:42;100392.00;;;21.31;58.79
8140;BME280;4111;50.972;7.072;2022-09-09T12:35:18;100390.19;;;21.35;58.45
8140;BME280;4111;50.972;7.072;2022-09-09T12:40:25;100385.47;;;21.35;57.32
8140;BME280;4111;50.972;7.072;2022-09-09T12:42:52;100386.94;;;21.33;57.38
8140;BME280;4111;50.972;7.072;2022-09-09T12:45:23;100381.91;;;21.35;57.58
8140;BME280;4111;50.972;7.072;2022-09-09T12:47:59;100374.94;;;21.29;57.23
8140;BME280;4111;50.972;7.072;2022-09-09T12:50:36;100371.84;;;21.22;57.44
8140;BME280;4111;50.972;7.072;2022-09-09T12:53:10;100373.16;;;21.24;57.40
8140;BME280;4111;50.972;7.072;2022-09-09T12:55:50;100374.13;;;21.19;57.61
8140;BME280;4111;50.972;7.072;2022-09-09T12:58:19;100377.06;;;21.14;57.05
8140;BME280;4111;50.972;7.072;2022-09-09T13:00:53;100379.19;;;21.17;57.36
8140;BME280;4111;50.972;7.072;2022-09-09T13:03:23;100373.81;;;21.21;57.13
8140;BME280;4111;50.972;7.072;2022-09-09T13:05:51;100372.34;;;21.24;57.47
8140;BME280;4111;50.972;7.072;2022-09-09T13:08:19;100371.34;;;21.37;57.44
8140;BME280;4111;50.972;7.072;2022-09-09T13:10:47;100364.69;;;21.47;57.28
8140;BME280;4111;50.972;7.072;2022-09-09T13:13:26;100365.94;;;21.58;57.45
8140;BME280;4111;50.972;7.072;2022-09-09T13:15:56;100366.41;;;21.69;56.93
8140;BME280;4111;50.972;7.072;2022-09-09T13:18:27;100357.25;;;21.77;56.64
8140;BME280;4111;50.972;7.072;2022-09-09T13:20:55;100352.69;;;21.81;56.79
8140;BME280;4111;50.972;7.072;2022-09-09T13:23:30;100345.69;;;21.84;57.25
8140;BME280;4111;50.972;7.072;2022-09-09T13:26:01;100345.88;;;21.78;57.09
8140;BME280;4111;50.972;7.072;2022-09-09T13:28:29;100349.59;;;21.83;56.77
8140;BME280;4111;50.972;7.072;2022-09-09T13:31:04;100337.06;;;21.85;57.12
8140;BME280;4111;50.972;7.072;2022-09-09T13:33:37;100338.97;;;21.93;56.83
8140;BME280;4111;50.972;7.072;2022-09-09T13:36:09;100346.41;;;22.02;56.34
8140;BME280;4111;50.972;7.072;2022-09-09T13:38:40;100351.13;;;22.01;56.26
8140;BME280;4111;50.972;7.072;2022-09-09T13:41:28;100351.94;;;22.02;56.54
8140;BME280;4111;50.972;7.072;2022-09-09T13:43:56;100346.56;;;22.05;56.87
8140;BME280;4111;50.972;7.072;2022-09-09T13:46:32;100347.34;;;22.06;56.94
8140;BME280;4111;50.972;7.072;2022-09-09T13:54:05;100344.66;;;21.97;57.19
8140;BME280;4111;50.972;7.072;2022-09-09T13:56:36;100346.38;;;22.10;57.15
8140;BME280;4111;50.972;7.072;2022-09-09T13:59:04;100342.69;;;22.27;57.54
8140;BME280;4111;50.972;7.072;2022-09-09T14:01:31;100331.00;;;22.51;57.20
8140;BME280;4111;50.972;7.072;2022-09-09T14:04:01;100331.44;;;22.74;56.84
8140;BME280;4111;50.972;7.072;2022-09-09T14:06:27;100333.59;;;22.90;55.86
8140;BME280;4111;50.972;7.072;2022-09-09T14:08:55;100319.31;;;23.00;55.50
8140;BME280;4111;50.972;7.072;2022-09-09T14:11:22;100326.66;;;22.84;55.57
8140;BME280;4111;50.972;7.072;2022-09-09T14:13:48;100345.41;;;22.57;55.86
8140;BME280;4111;50.972;7.072;2022-09-09T14:16:17;100332.22;;;22.42;56.12
8140;BME280;4111;50.972;7.072;2022-09-09T14:18:44;100340.13;;;22.22;56.64
8140;BME280;4111;50.972;7.072;2022-09-09T14:21:11;100332.22;;;22.12;57.08
8140;BME280;4111;50.972;7.072;2022-09-09T14:23:38;100335.78;;;22.12;57.39
8140;BME280;4111;50.972;7.072;2022-09-09T14:26:05;100334.38;;;22.06;57.56
8140;BME280;4111;50.972;7.072;2022-09-09T14:28:33;100338.31;;;21.96;57.97
8140;BME280;4111;50.972;7.072;2022-09-09T14:31:19;100335.22;;;21.98;57.99
8140;BME280;4111;50.972;7.072;2022-09-09T14:33:47;100354.94;;;21.88;58.63
8140;BME280;4111;50.972;7.072;2022-09-09T14:36:13;100341.34;;;21.74;58.77
8140;BME280;4111;50.972;7.072;2022-09-09T14:38:41;100343.81;;;21.67;58.91
8140;BME280;4111;50.972;7.072;2022-09-09T14:41:13;100334.91;;;21.61;59.18
8140;BME280;4111;50.972;7.072;2022-09-09T14:43:43;100337.81;;;21.65;59.36
8140;BME280;4111;50.972;7.072;2022-09-09T14:46:14;100338.63;;;21.65;59.39
8140;BME280;4111;50.972;7.072;2022-09-09T14:48:41;100342.50;;;21.64;59.96
8140;BME280;4111;50.972;7.072;2022-09-09T14:51:14;100364.50;;;21.61;60.17
8140;BME280;4111;50.972;7.072;2022-09-09T14:53:43;100378.16;;;21.48;61.44
8140;BME280;4111;50.972;7.072;2022-09-09T14:56:13;100384.56;;;21.05;67.52
8140;BME280;4111;50.972;7.072;2022-09-09T14:58:39;100369.06;;;20.43;70.52
8140;BME280;4111;50.972;7.072;2022-09-09T15:01:10;100367.88;;;20.18;72.06
8140;BME280;4111;50.972;7.072;2022-09-09T15:03:40;100364.75;;;20.02;73.38
8140;BME280;4111;50.972;7.072;2022-09-09T15:06:12;100374.09;;;19.92;74.51
8140;BME280;4111;50.972;7.072;2022-09-09T15:08:41;100362.25;;;19.83;75.48
8140;BME280;4111;50.972;7.072;2022-09-09T15:11:09;100363.03;;;19.75;76.41